createdAt,value
2022-07-29T06:27:46.822Z,27.03
2022-07-29T06:30:16.470Z,27.23
2022-07-29T06:32:45.773Z,27.25
2022-07-29T06:35:38.765Z,27.28
2022-07-29T06:38:12.008Z,27.23
2022-07-29T06:41:07.309Z,27.72
2022-07-29T06:43:50.570Z,27.50
2022-07-29T06:46:23.222Z,27.99
2022-07-29T06:48:53.656Z,28.27
2022-07-29T06:51:25.629Z,28.47
2022-07-29T06:53:58.207Z,28.70
2022-07-29T06:56:29.461Z,28.81
2022-07-29T06:59:00.225Z,28.79
2022-07-29T07:01:30.928Z,28.77
2022-07-29T07:04:00.232Z,28.80
2022-07-29T07:06:32.248Z,28.92
2022-07-29T07:09:01.488Z,29.18
2022-07-29T07:11:32.049Z,29.73
2022-07-29T07:14:04.163Z,29.84
2022-07-29T07:16:34.019Z,29.83
2022-07-29T07:19:03.624Z,29.73
2022-07-29T07:21:33.085Z,29.60
2022-07-29T07:24:02.691Z,29.75
2022-07-29T07:26:31.880Z,29.74
2022-07-29T07:29:02.629Z,29.83
2022-07-29T07:31:32.010Z,29.99
2022-07-29T07:34:01.353Z,30.24
2022-07-29T07:36:30.647Z,30.41
2022-07-29T07:38:59.858Z,30.49
2022-07-29T07:41:32.411Z,30.41
2022-07-29T07:44:05.615Z,30.39
2022-07-29T07:46:34.767Z,30.29
2022-07-29T07:49:03.946Z,30.24
2022-07-29T07:51:33.548Z,30.18
2022-07-29T07:54:04.526Z,30.18
2022-07-29T07:56:35.384Z,29.79
2022-07-29T07:59:06.303Z,29.87
2022-07-29T08:01:54.957Z,29.79
2022-07-29T08:04:28.252Z,29.86
2022-07-29T08:06:59.073Z,29.70
2022-07-29T08:09:32.478Z,29.55
2022-07-29T08:12:03.734Z,29.54
2022-07-29T08:14:35.577Z,29.56
2022-07-29T08:17:04.803Z,29.30
2022-07-29T08:19:34.230Z,29.80
2022-07-29T08:22:03.523Z,29.82
2022-07-29T08:24:54.844Z,29.79
2022-07-29T08:27:42.831Z,30.05
2022-07-29T08:30:18.567Z,30.12
2022-07-29T08:32:55.655Z,29.57
2022-07-29T08:35:26.312Z,30.14
2022-07-29T08:37:56.231Z,30.65
2022-07-29T08:40:32.137Z,30.52
2022-07-29T08:43:02.594Z,31.10
2022-07-29T08:45:37.883Z,31.65
2022-07-29T08:48:07.560Z,32.33
2022-07-29T08:50:41.035Z,32.59
2022-07-29T08:53:13.543Z,32.56
2022-07-29T08:55:45.465Z,31.70
2022-07-29T08:58:15.955Z,31.96
2022-07-29T09:00:49.161Z,33.65
2022-07-29T09:03:21.290Z,35.66
2022-07-29T09:05:52.429Z,37.88
2022-07-29T09:08:22.901Z,39.89
2022-07-29T09:10:52.724Z,41.57
2022-07-29T09:13:22.049Z,43.16
2022-07-29T09:15:53.003Z,44.58
2022-07-29T09:18:37.662Z,45.82
2022-07-29T09:21:24.538Z,47.07
2022-07-29T09:24:05.016Z,48.33
2022-07-29T09:26:35.766Z,48.63
2022-07-29T09:29:12.644Z,47.70
2022-07-29T09:31:47.170Z,46.71
2022-07-29T09:34:18.461Z,46.00
2022-07-29T09:36:49.420Z,46.28
2022-07-29T09:39:29.602Z,46.30
2022-07-29T09:42:00.917Z,46.23
2022-07-29T09:44:43.964Z,47.14
2022-07-29T09:47:19.008Z,47.40
2022-07-29T09:49:56.651Z,46.61
2022-07-29T09:52:27.387Z,45.07
2022-07-29T09:55:07.040Z,42.77
2022-07-29T09:57:37.399Z,41.29
2022-07-29T10:00:17.267Z,38.80
2022-07-29T10:02:53.901Z,36.95
2022-07-29T10:05:36.044Z,35.73
2022-07-29T10:08:07.473Z,35.28
2022-07-29T10:10:38.678Z,35.02
2022-07-29T10:13:15.399Z,34.48
2022-07-29T10:15:47.793Z,34.24
2022-07-29T10:18:21.147Z,34.47
2022-07-29T10:20:52.257Z,34.39
2022-07-29T10:23:22.552Z,33.86
2022-07-29T10:25:51.899Z,33.47
2022-07-29T10:28:26.555Z,33.73
2022-07-29T10:31:02.168Z,33.81
2022-07-29T10:33:48.004Z,34.04
2022-07-29T10:36:44.375Z,34.13
2022-07-29T10:39:34.403Z,33.70
2022-07-29T10:42:20.370Z,33.48
2022-07-29T10:45:05.559Z,32.77
2022-07-29T10:47:35.702Z,32.65
2022-07-29T10:50:24.129Z,32.37
2022-07-29T10:52:59.678Z,32.09
2022-07-29T10:55:43.340Z,31.92
2022-07-29T10:58:32.197Z,31.66
2022-07-29T11:01:41.004Z,31.79
2022-07-29T11:04:43.668Z,31.67
2022-07-29T11:07:21.335Z,31.85
2022-07-29T11:10:51.086Z,31.45
2022-07-29T11:13:49.819Z,31.90
2022-07-29T11:16:25.969Z,31.24
2022-07-29T11:19:30.364Z,31.61
2022-07-29T11:22:01.662Z,30.89
2022-07-29T11:24:50.113Z,31.43
2022-07-29T11:27:28.687Z,31.81
2022-07-29T11:30:03.248Z,31.94
2022-07-29T11:32:40.434Z,31.68
2022-07-29T11:35:19.278Z,31.85
2022-07-29T11:38:45.437Z,31.87
2022-07-29T11:41:31.859Z,32.00
2022-07-29T11:44:03.173Z,31.72
2022-07-29T11:46:50.532Z,32.06
2022-07-29T11:49:32.325Z,32.30
2022-07-29T11:52:04.837Z,32.28
2022-07-29T11:54:57.996Z,32.36
2022-07-29T11:57:37.400Z,32.03
2022-07-29T12:00:18.651Z,31.95
2022-07-29T12:03:02.893Z,32.24
2022-07-29T12:05:51.743Z,32.56
2022-07-29T12:08:23.310Z,32.21
2022-07-29T12:10:54.505Z,32.59
2022-07-29T12:13:49.233Z,33.67
2022-07-29T12:16:25.595Z,33.71
2022-07-29T12:19:02.484Z,33.22
2022-07-29T12:21:53.785Z,33.03
2022-07-29T12:24:27.427Z,32.55
2022-07-29T12:26:59.695Z,32.61
2022-07-29T12:29:36.789Z,32.41
2022-07-29T12:32:14.409Z,32.42
2022-07-29T12:34:45.122Z,33.21
2022-07-29T12:37:35.773Z,32.73
2022-07-29T12:40:14.066Z,33.14
2022-07-29T12:42:43.610Z,34.11
2022-07-29T12:45:19.269Z,35.39
2022-07-29T12:47:55.180Z,37.09
2022-07-29T12:50:26.463Z,37.98
2022-07-29T12:52:55.969Z,38.41
2022-07-29T12:55:50.387Z,39.00
2022-07-29T12:58:30.389Z,39.18
2022-07-29T13:01:17.321Z,39.43
2022-07-29T13:03:56.719Z,39.40
2022-07-29T13:06:41.693Z,39.56
2022-07-29T13:09:13.554Z,39.30
2022-07-29T13:11:58.775Z,39.02
2022-07-29T13:14:35.712Z,38.33
2022-07-29T13:17:08.938Z,38.71
2022-07-29T13:19:41.745Z,38.69
2022-07-29T13:22:11.768Z,38.40
2022-07-29T13:24:54.024Z,38.38
2022-07-29T13:27:24.812Z,38.03
2022-07-29T13:29:55.017Z,37.62
2022-07-29T13:32:27.934Z,37.22
2022-07-29T13:34:58.480Z,37.01
2022-07-29T13:37:30.995Z,36.81
2022-07-29T13:40:02.668Z,36.22
2022-07-29T13:42:32.164Z,35.27
2022-07-29T13:45:01.742Z,34.19
2022-07-29T13:47:33.368Z,33.32
2022-07-29T13:50:03.348Z,32.76
2022-07-29T13:52:34.823Z,31.91
2022-07-29T13:55:04.605Z,31.29
2022-07-29T13:57:33.839Z,30.50
2022-07-29T14:00:03.037Z,30.06
2022-07-29T14:02:34.879Z,29.53
2022-07-29T14:05:08.258Z,29.16
2022-07-29T14:07:38.127Z,28.58
2022-07-29T14:10:08.278Z,28.33
2022-07-29T14:12:37.702Z,28.08
2022-07-29T14:15:07.961Z,27.65
2022-07-29T14:17:38.781Z,27.57
2022-07-29T14:20:08.982Z,27.29
2022-07-29T14:22:42.408Z,26.92
2022-07-29T14:25:15.040Z,26.72
2022-07-29T14:27:45.169Z,26.64
2022-07-29T14:30:15.550Z,26.28
2022-07-29T14:32:46.306Z,26.15
2022-07-29T14:35:15.580Z,26.16
2022-07-29T14:37:44.924Z,25.77
2022-07-29T14:40:14.709Z,25.62
2022-07-29T14:42:44.065Z,25.63
2022-07-29T14:45:13.564Z,25.63
2022-07-29T14:47:42.733Z,25.51
2022-07-29T14:50:31.977Z,24.84
2022-07-29T14:53:01.654Z,25.27
2022-07-29T14:55:31.205Z,25.17
2022-07-29T14:58:08.799Z,25.05
2022-07-29T15:00:40.365Z,24.95
2022-07-29T15:03:11.574Z,24.85
2022-07-29T15:05:42.472Z,24.74
2022-07-29T15:08:12.191Z,24.19
2022-07-29T15:10:41.447Z,24.09
2022-07-29T15:13:10.655Z,24.05
2022-07-29T15:15:39.855Z,23.89
2022-07-29T15:18:11.884Z,23.87
2022-07-29T15:20:42.657Z,24.20
2022-07-29T15:23:13.948Z,23.87
2022-07-29T15:25:43.245Z,24.02
2022-07-29T15:28:12.588Z,23.97
2022-07-29T15:30:43.288Z,23.78
2022-07-29T15:33:12.723Z,23.92
2022-07-29T15:35:43.443Z,23.97
2022-07-29T15:38:12.681Z,23.71
2022-07-29T15:41:03.611Z,23.58
2022-07-29T15:43:32.798Z,23.65
2022-07-29T15:46:19.250Z,23.48
2022-07-29T15:48:48.724Z,23.54
2022-07-29T15:51:19.533Z,23.31
2022-07-29T15:53:53.585Z,23.31
2022-07-29T15:56:23.193Z,23.20
2022-07-29T15:58:53.174Z,22.29
2022-07-29T16:01:23.590Z,22.84
2022-07-29T16:03:53.150Z,22.52
2022-07-29T16:06:24.162Z,22.46
2022-07-29T16:08:56.195Z,22.70
2022-07-29T16:11:25.349Z,22.71
2022-07-29T16:13:54.661Z,22.19
2022-07-29T16:16:24.932Z,21.86
2022-07-29T16:18:56.145Z,22.30
2022-07-29T16:21:26.827Z,22.48
2022-07-29T16:23:56.099Z,22.30
2022-07-29T16:26:25.298Z,22.03
2022-07-29T16:28:54.540Z,22.32
2022-07-29T16:31:24.410Z,22.14
2022-07-29T16:33:55.688Z,21.80
2022-07-29T16:36:26.709Z,21.86
2022-07-29T16:38:55.885Z,21.36
2022-07-29T16:41:25.212Z,22.02
2022-07-29T16:43:55.662Z,21.97
2022-07-29T16:46:25.857Z,21.52
2022-07-29T16:48:56.125Z,21.98
2022-07-29T16:51:27.025Z,21.89
2022-07-29T16:53:56.236Z,22.03
2022-07-29T16:56:25.409Z,21.51
2022-07-29T16:58:54.643Z,22.12
2022-07-29T17:01:23.870Z,22.18
2022-07-29T17:04:08.018Z,21.92
2022-07-29T17:06:40.166Z,21.95
2022-07-29T17:09:11.376Z,21.87
2022-07-29T17:11:52.727Z,21.72
2022-07-29T17:14:25.406Z,21.92
2022-07-29T17:17:01.186Z,21.72
2022-07-29T17:19:32.895Z,21.89
2022-07-29T17:22:10.523Z,21.60
2022-07-29T17:24:42.277Z,21.50
2022-07-29T17:27:12.495Z,21.48
2022-07-29T17:29:42.414Z,21.28
2022-07-29T17:32:12.495Z,21.30
2022-07-29T17:34:43.709Z,21.72
2022-07-29T17:37:15.297Z,21.20
2022-07-29T17:39:44.901Z,21.50
2022-07-29T17:42:16.174Z,21.41
2022-07-29T17:44:46.035Z,21.43
2022-07-29T17:47:16.091Z,21.42
2022-07-29T17:49:46.085Z,21.46
2022-07-29T17:52:18.773Z,21.43
2022-07-29T17:54:49.668Z,21.05
2022-07-29T17:57:18.875Z,21.04
2022-07-29T17:59:48.169Z,21.33
2022-07-29T18:02:17.425Z,21.16
2022-07-29T18:04:46.733Z,21.28
2022-07-29T18:07:21.295Z,20.74
2022-07-29T18:09:50.610Z,21.10
2022-07-29T18:12:19.926Z,21.19
2022-07-29T18:14:49.165Z,20.83
2022-07-29T18:17:18.874Z,21.12
2022-07-29T18:19:48.615Z,20.46
2022-07-29T18:22:17.836Z,20.64
2022-07-29T18:24:48.607Z,21.00
2022-07-29T18:27:18.061Z,20.85
2022-07-29T18:29:47.269Z,20.86
2022-07-29T18:32:20.623Z,20.89
2022-07-29T18:34:58.811Z,20.39
2022-07-29T18:38:01.639Z,20.77
2022-07-29T18:40:21.268Z,20.78
2022-07-29T18:42:50.413Z,20.60
2022-07-29T18:45:20.840Z,20.62
2022-07-29T18:47:50.756Z,20.71
2022-07-29T18:50:22.920Z,20.65
2022-07-29T18:52:55.561Z,20.18
2022-07-29T18:55:26.657Z,20.54
2022-07-29T18:57:57.376Z,19.93
2022-07-29T19:00:28.653Z,20.10
2022-07-29T19:02:58.615Z,20.37
2022-07-29T19:05:27.912Z,20.31
2022-07-29T19:07:57.252Z,20.27
2022-07-29T19:10:27.969Z,19.99
2022-07-29T19:12:58.212Z,19.64
2022-07-29T19:15:27.904Z,19.93
2022-07-29T19:18:00.994Z,19.77
2022-07-29T19:20:31.010Z,20.00
2022-07-29T19:23:00.369Z,19.62
2022-07-29T19:25:31.090Z,19.93
2022-07-29T19:28:05.186Z,19.86
2022-07-29T19:30:34.533Z,19.75
2022-07-29T19:33:04.747Z,19.62
2022-07-29T19:35:34.053Z,19.69
2022-07-29T19:38:03.947Z,19.49
2022-07-29T19:40:35.093Z,19.45
2022-07-29T19:43:05.003Z,19.75
2022-07-29T19:45:55.641Z,19.88
2022-07-29T19:48:25.486Z,19.27
2022-07-29T19:50:55.027Z,19.62
2022-07-29T19:53:24.739Z,19.28
2022-07-29T19:55:55.940Z,19.12
2022-07-29T19:58:25.944Z,19.70
2022-07-29T20:00:56.451Z,19.39
2022-07-29T20:03:25.787Z,19.44
2022-07-29T20:05:55.264Z,19.68
2022-07-29T20:08:24.499Z,19.03
2022-07-29T20:10:56.445Z,19.63
2022-07-29T20:13:25.713Z,19.62
2022-07-29T20:15:55.723Z,18.89
2022-07-29T20:18:24.959Z,19.43
2022-07-29T20:20:54.944Z,19.55
2022-07-29T20:23:24.308Z,19.45
2022-07-29T20:25:55.217Z,19.53
2022-07-29T20:28:25.463Z,19.14
2022-07-29T20:30:54.743Z,19.30
2022-07-29T20:33:24.688Z,19.04
2022-07-29T20:35:53.973Z,19.03
2022-07-29T20:38:23.211Z,18.98
2022-07-29T20:40:54.450Z,18.84
2022-07-29T20:43:25.817Z,18.92
2022-07-29T20:45:55.142Z,18.95
2022-07-29T20:48:24.514Z,19.29
2022-07-29T20:50:55.431Z,19.24
2022-07-29T20:53:25.517Z,19.21
2022-07-29T20:55:55.438Z,19.17
2022-07-29T20:58:26.291Z,18.61
2022-07-29T21:00:55.455Z,19.05
2022-07-29T21:03:24.710Z,18.66
2022-07-29T21:05:54.015Z,18.87
2022-07-29T21:08:23.269Z,18.97
2022-07-29T21:10:52.574Z,18.54
2022-07-29T21:13:23.534Z,18.89
2022-07-29T21:15:59.345Z,18.74
2022-07-29T21:18:32.656Z,18.82
2022-07-29T21:21:02.992Z,18.41
2022-07-29T21:23:32.509Z,18.42
2022-07-29T21:26:01.899Z,18.44
2022-07-29T21:28:35.276Z,18.50
2022-07-29T21:31:09.480Z,18.59
2022-07-29T21:33:38.991Z,18.23
2022-07-29T21:38:59.299Z,18.59
2022-07-29T21:41:28.961Z,18.00
2022-07-29T21:43:59.524Z,18.58
2022-07-29T21:46:32.089Z,18.36
2022-07-29T21:49:01.381Z,18.54
2022-07-29T21:51:30.718Z,17.99
2022-07-29T21:53:59.978Z,18.41
2022-07-29T21:56:29.143Z,18.44
2022-07-29T21:59:00.784Z,18.47
2022-07-29T22:01:38.946Z,18.37
2022-07-29T22:04:08.792Z,18.13
2022-07-29T22:06:38.075Z,18.51
2022-07-29T22:09:07.511Z,17.82
2022-07-29T22:11:37.591Z,18.49
2022-07-29T22:14:07.762Z,18.29
2022-07-29T22:16:38.678Z,18.11
2022-07-29T22:19:07.950Z,18.49
2022-07-29T22:21:37.190Z,18.21
2022-07-29T22:24:06.980Z,18.21
2022-07-29T22:26:39.179Z,18.47
2022-07-29T22:29:08.704Z,18.02
2022-07-29T22:31:40.412Z,18.45
2022-07-29T22:34:13.182Z,18.00
2022-07-29T22:36:43.798Z,18.44
2022-07-29T22:39:15.545Z,17.98
2022-07-29T22:41:45.379Z,18.38
2022-07-29T22:44:14.648Z,18.35
2022-07-29T22:46:45.460Z,17.84
2022-07-29T22:49:14.840Z,17.91
2022-07-29T22:51:44.099Z,18.12
2022-07-29T22:54:13.350Z,18.15
2022-07-29T22:56:42.702Z,17.85
2022-07-29T22:59:11.975Z,17.77
2022-07-29T23:01:41.273Z,18.27
2022-07-29T23:04:12.497Z,18.24
2022-07-29T23:06:41.766Z,18.30
2022-07-29T23:09:10.946Z,18.31
2022-07-29T23:11:40.153Z,17.86
2022-07-29T23:14:09.632Z,17.96
2022-07-29T23:16:50.124Z,17.97
2022-07-29T23:19:20.913Z,17.97
2022-07-29T23:21:50.154Z,18.17
2022-07-29T23:24:19.340Z,17.94
2022-07-29T23:26:48.533Z,18.33
2022-07-29T23:29:18.746Z,17.95
2022-07-29T23:31:48.444Z,18.35
2022-07-29T23:34:17.991Z,17.68
2022-07-29T23:36:48.796Z,17.90
2022-07-29T23:39:18.069Z,18.41
2022-07-29T23:41:47.305Z,18.44
2022-07-29T23:44:16.722Z,18.47
2022-07-29T23:46:46.040Z,18.22
2022-07-29T23:49:15.431Z,18.41
2022-07-29T23:51:44.696Z,18.39
2022-07-29T23:54:15.418Z,18.66
2022-07-29T23:56:44.632Z,18.69
2022-07-29T23:59:15.709Z,18.70
